Latest Weather Observations for Holsworthy

IDN60801

Issued at 12:35 pm EDT Saturday 1 November 2014 (issued every 30 minutes, with the page automatically refreshed every 10 minutes)

About weather observations | Map of weather stations | Latest weather observations for NSW | Other Formats
Station Details ID: 066161 Name: HOLSWORTHY AERODROME AWS Lat: -33.99 Lon: 150.95 Height: 68.16 m
Data from the previous 72 hours. | See also: Recent months at Holsworthy
Date/Time
EDT
Temp
°C
App
Temp
°C
Dew
Point
Rel
Hum
%
Delta-T
°C
Wind Press
QNH
hPa
Press
MSL
hPa
Rain
since 9 am
mm
Dir
 
Spd
km/h
Gust
km/h
Spd
kts
Gust
kts
01/12:30pm 35.0 30.7 13.2 27 13.3 NW 28 44 15 24 999.5 999.2 0.0
01/12:08pm 34.2 29.1 13.1 28 12.8 NW 32 50 17 27 999.7 999.4 0.0
01/12:00pm 34.4 29.5 13.8 29 12.7 N 32 43 17 23 999.8 999.5 0.0
01/11:30am 33.7 29.2 13.7 30 12.2 NNW 30 48 16 26 1000.4 1000.1 0.0
01/11:10am 33.3 29.2 13.9 31 11.8 NNW 28 50 15 27 1000.8 1000.5 0.0
01/11:00am 33.1 30.1 13.7 31 11.8 NNW 22 43 12 23 1001.1 1000.8 0.0
01/10:30am 31.4 28.5 14.1 35 10.5 N 22 33 12 18 1002.1 1001.9 0.0
01/10:00am 31.1 28.4 13.4 34 10.7 NNW 20 37 11 20 1002.6 1002.4 0.0
01/09:30am 29.8 27.3 14.0 38 9.5 N 20 32 11 17 1003.1 1002.9 0.0
01/09:00am 28.5 25.7 13.2 39 9.1 N 20 32 11 17 1003.5 1003.3 -
01/08:30am 27.3 25.1 13.3 42 8.3 NNW 17 26 9 14 1003.8 1003.6 -
01/08:00am 26.6 24.7 13.0 43 8.0 N 15 20 8 11 1004.0 1003.8 -
01/07:30am 26.1 24.3 13.2 44 7.6 N 15 22 8 12 1004.4 1004.2 -
01/07:00am 24.8 23.6 12.7 47 7.0 N 11 15 6 8 1004.6 1004.4 -
01/06:30am 23.2 22.7 12.8 52 6.0 NE 7 11 4 6 1004.5 1004.3 -
01/06:00am 22.2 21.7 12.7 55 5.4 NNE 7 11 4 6 1004.3 1004.1 -
01/05:30am 21.7 20.9 12.8 57 5.1 N 9 11 5 6 1004.0 1003.8 -
01/05:00am 21.0 20.8 12.9 60 4.6 NNW 6 9 3 5 1003.9 1003.7 -
01/04:30am 19.6 19.2 13.1 66 3.7 SW 7 9 4 5 1004.2 1004.0 -
01/04:00am 20.6 20.6 14.3 67 3.7 W 7 13 4 7 1004.4 1004.2 -
01/03:30am 20.5 20.2 14.4 68 3.6 SW 9 11 5 6 1004.8 1004.6 -
01/03:00am 20.4 20.7 15.0 71 3.2 SW 7 11 4 6 1005.0 1004.8 -
01/02:30am 20.2 20.7 15.6 75 2.7 SW 7 11 4 6 1005.2 1005.0 -
01/02:00am 19.7 20.7 16.3 81 2.1 SW 6 9 3 5 1005.5 1005.3 0.0
01/01:30am 19.8 20.4 15.9 78 2.3 WSW 7 9 4 5 1005.9 1005.7 0.0
01/01:00am 20.2 22.3 16.2 78 2.4 CALM 0 6 0 3 1005.8 1005.6 0.0
01/12:30am 21.3 22.2 17.5 79 2.3 E 9 11 5 6 1006.2 1006.0 0.0
01/12:00am 21.5 22.1 16.7 74 2.9 E 9 13 5 7 1006.3 1006.1 0.0
 
Date/Time
EDT
Temp
°C
App
Temp
°C
Dew
Point
Rel
Hum
%
Delta-T
°C
Wind Press
QNH
hPa
Press
MSL
hPa
Rain
since 9 am
mm
Dir
 
Spd
km/h
Gust
km/h
Spd
kts
Gust
kts
31/11:30pm 21.9 21.8 15.0 65 4.1 ESE 9 13 5 7 1006.3 1006.1 0.0
31/11:00pm 22.5 21.8 13.3 56 5.3 ESE 9 13 5 7 1006.5 1006.3 0.0
31/10:30pm 23.9 23.2 13.2 51 6.2 ESE 9 13 5 7 1006.9 1006.8 0.0
31/10:00pm 23.3 21.4 11.7 48 6.6 SE 13 15 7 8 1007.3 1007.2 0.0
31/09:30pm 23.6 22.8 11.0 45 7.0 SE 6 9 3 5 1007.6 1007.5 0.0
31/09:00pm 25.1 23.5 10.2 39 8.3 E 9 13 5 7 1007.4 1007.3 0.0
31/08:30pm 25.7 23.1 9.5 36 8.9 E 13 20 7 11 1007.1 1007.0 0.0
31/08:00pm 25.5 23.5 10.1 38 8.6 E 11 15 6 8 1007.1 1007.0 0.0
31/07:30pm 26.2 23.9 10.4 37 8.8 E 13 17 7 9 1007.1 1007.0 0.0
31/07:00pm 27.3 24.5 10.1 34 9.7 E 15 20 8 11 1006.9 1006.8 0.0
31/06:30pm 28.8 25.6 10.0 31 10.6 ENE 17 20 9 11 1006.7 1006.5 0.0
31/06:00pm 29.1 25.9 9.8 30 10.9 ENE 17 24 9 13 1006.8 1006.7 0.0
31/05:30pm 30.2 26.2 9.1 27 11.8 ENE 20 30 11 16 1006.7 1006.5 0.0
31/05:00pm 31.3 27.3 8.9 25 12.6 ENE 20 30 11 16 1006.7 1006.5 0.0
31/04:30pm 31.2 26.7 7.0 22 13.1 E 20 35 11 19 1006.6 1006.4 0.0
31/04:00pm 32.2 27.8 9.1 24 13.1 E 22 30 12 16 1006.7 1006.5 0.0
31/03:30pm 32.2 27.6 9.7 25 12.8 ENE 24 35 13 19 1007.1 1007.0 0.0
31/03:00pm 32.9 28.5 10.3 25 13.1 E 24 33 13 18 1007.4 1007.3 0.0
31/02:30pm 35.1 31.2 3.6 14 16.5 N 13 20 7 11 1008.0 1007.9 0.0
31/02:00pm 34.6 30.5 2.2 13 16.6 NNW 13 26 7 14 1008.7 1008.6 0.0
31/01:30pm 34.0 29.4 1.7 13 16.3 N 15 28 8 15 1009.2 1009.1 0.0
31/01:00pm 34.1 29.7 4.7 16 15.6 N 17 28 9 15 1009.8 1009.7 0.0
31/12:30pm 32.5 28.2 5.1 18 14.5 N 17 26 9 14 1010.4 1010.3 0.0
31/12:00pm 31.1 28.1 9.3 26 12.3 NNE 15 22 8 12 1011.0 1010.9 0.0
31/11:30am 29.5 27.6 10.6 31 10.8 N 11 17 6 9 1011.8 1011.7 0.0
31/11:00am 27.8 26.3 10.5 34 9.8 N 9 15 5 8 1012.5 1012.4 0.0
31/10:30am 26.4 25.3 10.5 37 8.9 WNW 7 13 4 7 1013.0 1012.9 0.0
31/10:00am 24.7 24.2 10.6 41 7.9 W 4 9 2 5 1013.3 1013.2 0.0
31/09:30am 22.9 21.8 11.9 50 6.2 W 9 13 5 7 1013.5 1013.4 0.0
31/09:00am 20.9 20.2 13.1 61 4.5 WSW 9 15 5 8 1013.6 1013.5 0.0
31/08:30am 19.0 19.0 12.3 65 3.7 WSW 4 11 2 6 1013.6 1013.5 0.0
31/08:00am 16.8 16.5 11.5 71 2.9 NNW 4 7 2 4 1013.4 1013.3 0.0
31/07:30am 15.7 16.1 11.3 75 2.4 CALM 0 0 0 0 1013.2 1013.1 0.0
31/07:00am 13.5 13.9 11.4 87 1.1 CALM 0 0 0 0 1013.2 1013.1 0.0
31/06:30am 11.7 11.7 9.9 89 0.9 CALM 0 0 0 0 1013.0 1012.9 0.0
31/06:00am 12.2 12.3 10.3 88 1.0 CALM 0 0 0 0 1013.0 1012.9 0.0
31/05:30am 13.0 13.2 10.7 86 1.2 CALM 0 0 0 0 1012.8 1012.7 0.0
31/05:00am 12.7 13.0 10.8 88 1.0 CALM 0 0 0 0 1012.7 1012.6 0.0
31/04:30am 12.4 12.5 10.3 87 1.1 CALM 0 0 0 0 1012.6 1012.5 0.0
31/04:00am 12.6 12.7 10.3 86 1.2 CALM 0 0 0 0 1012.6 1012.5 0.0
31/03:30am 12.7 12.8 10.1 84 1.3 CALM 0 0 0 0 1012.5 1012.4 0.0
31/03:00am 13.9 14.1 10.5 80 1.8 CALM 0 0 0 0 1012.6 1012.5 0.0
31/02:30am 14.9 15.1 10.7 76 2.2 CALM 0 0 0 0 1012.7 1012.6 0.0
31/02:00am 15.7 16.0 10.9 73 2.6 CALM 0 0 0 0 1012.9 1012.8 0.0
31/01:30am 15.7 14.9 11.1 74 2.5 SSW 6 7 3 4 1013.2 1013.1 0.0
31/01:00am 15.1 13.7 10.9 76 2.2 SSW 9 11 5 6 1013.5 1013.4 0.0
31/12:30am 15.3 14.2 10.7 74 2.4 SW 7 9 4 5 1013.8 1013.7 0.0
31/12:00am 16.6 16.0 10.5 67 3.2 SE 4 7 2 4 1013.7 1013.6 0.0
 
Date/Time
EDT
Temp
°C
App
Temp
°C
Dew
Point
Rel
Hum
%
Delta-T
°C
Wind Press
QNH
hPa
Press
MSL
hPa
Rain
since 9 am
mm
Dir
 
Spd
km/h
Gust
km/h
Spd
kts
Gust
kts
30/11:30pm 20.5 19.6 11.4 56 5.0 E 7 15 4 8 1013.8 1013.7 0.0
30/11:00pm 19.1 18.1 10.9 59 4.5 ESE 7 7 4 4 1013.8 1013.7 0.0
30/10:30pm 19.8 18.3 10.5 55 5.0 ESE 9 13 5 7 1013.7 1013.6 0.0
30/10:00pm 20.2 18.0 10.9 55 5.1 ESE 13 17 7 9 1013.6 1013.5 0.0
30/09:30pm 20.1 18.0 11.1 56 4.9 SE 13 17 7 9 1013.5 1013.4 0.0
30/09:00pm 21.0 18.9 11.1 53 5.5 ESE 13 15 7 8 1013.1 1013.0 0.0
30/08:30pm 21.5 19.1 11.5 53 5.6 ESE 15 17 8 9 1012.9 1012.8 0.0
30/08:00pm 22.3 20.3 11.4 50 6.1 ESE 13 19 7 10 1012.4 1012.3 0.0
30/07:30pm 23.5 21.0 11.2 46 6.9 ESE 15 19 8 10 1012.1 1012.0 0.0
30/07:00pm 25.2 22.7 11.0 41 8.0 ESE 15 20 8 11 1011.6 1011.5 0.0
30/06:30pm 26.2 22.9 11.5 40 8.4 SE 20 26 11 14 1011.2 1011.1 0.0
30/06:27pm 26.4 23.0 11.3 39 8.6 ESE 20 28 11 15 1011.1 1011.0 0.0
30/06:00pm 31.4 29.1 5.0 19 13.9 NW 6 9 3 5 1010.5 1010.4 0.0
30/05:30pm 30.8 27.1 4.5 19 13.7 N 13 19 7 10 1010.4 1010.3 0.0
30/05:00pm 31.1 28.1 6.2 21 13.4 NNW 11 20 6 11 1010.3 1010.2 0.0
30/04:30pm 31.4 28.0 5.8 20 13.6 W 13 20 7 11 1010.4 1010.3 0.0
30/04:00pm 31.0 27.0 4.7 19 13.7 WNW 15 24 8 13 1010.6 1010.5 0.0
30/03:30pm 30.4 26.8 4.9 20 13.3 W 13 24 7 13 1010.9 1010.8 0.0
30/03:00pm 30.1 27.1 7.9 25 12.2 WNW 13 19 7 10 1011.5 1011.4 0.0
30/02:30pm 29.7 26.3 7.6 25 12.0 WSW 15 24 8 13 1012.1 1012.0 0.0
30/02:00pm 29.4 26.7 9.0 28 11.3 W 13 20 7 11 1012.5 1012.4 0.0
30/01:30pm 29.0 26.1 8.1 27 11.4 WNW 13 24 7 13 1012.8 1012.7 0.0
30/01:00pm 27.8 24.4 6.0 25 11.4 W 13 19 7 10 1013.0 1012.9 0.0
30/12:30pm 27.6 23.8 7.5 28 10.8 W 17 24 9 13 1013.4 1013.3 0.0
30/12:00pm 27.7 24.5 7.0 27 11.0 WNW 13 22 7 12 1013.8 1013.7 0.0
30/11:30am 27.0 25.2 10.7 36 9.2 NW 11 20 6 11 1014.5 1014.3 0.0
30/11:00am 25.8 24.4 10.8 39 8.4 NW 9 19 5 10 1014.8 1014.6 0.0
30/10:30am 24.2 24.2 14.3 54 5.9 N 7 13 4 7 1015.1 1014.9 0.0
30/10:00am 22.8 22.7 14.9 61 4.7 N 9 15 5 8 1015.5 1015.3 0.0
30/09:30am 21.1 20.8 14.3 65 4.0 WNW 9 15 5 8 1015.6 1015.4 0.0
30/09:00am 20.1 19.9 14.7 71 3.2 W 9 13 5 7 1015.6 1015.4 0.0
30/08:30am 18.5 18.3 14.6 78 2.3 WNW 9 13 5 7 1015.9 1015.7 0.0
30/08:00am 16.9 16.4 13.8 82 1.8 W 9 11 5 6 1015.7 1015.5 0.0
30/07:30am 15.6 15.5 13.8 89 1.0 WSW 7 11 4 6 1015.6 1015.4 0.0
30/07:00am 14.6 14.2 14.0 96 0.3 SW 9 11 5 6 1015.4 1015.2 0.0
30/06:30am 12.4 10.9 11.8 96 0.3 SW 11 13 6 7 1015.3 1015.1 0.0
30/06:00am 11.6 10.5 10.5 93 0.6 SW 7 9 4 5 1015.0 1014.8 0.0
30/05:30am 11.7 11.8 10.1 90 0.8 CALM 0 0 0 0 1014.9 1014.7 0.0
30/05:00am 12.7 12.8 11.4 92 0.7 ESE 2 6 1 3 1014.8 1014.6 0.0
30/04:30am 13.3 13.2 12.0 92 0.7 ESE 4 7 2 4 1014.8 1014.6 0.0
30/04:00am 13.5 14.2 12.1 91 0.8 CALM 0 0 0 0 1015.1 1014.9 0.0
30/03:30am 13.9 14.7 12.5 91 0.8 CALM 0 0 0 0 1015.3 1015.1 0.0
30/03:00am 14.4 15.3 13.0 91 0.8 CALM 0 0 0 0 1015.6 1015.4 0.0
30/02:30am 14.7 15.6 12.9 89 1.0 CALM 0 0 0 0 1015.8 1015.6 0.0
30/02:00am 15.2 16.2 13.1 87 1.2 CALM 0 6 0 3 1016.0 1015.8 0.0
30/01:30am 14.9 15.1 12.9 88 1.1 E 4 6 2 3 1016.3 1016.1 0.0
30/01:00am 15.8 15.8 13.5 86 1.3 E 6 6 3 3 1016.5 1016.3 0.0
30/12:30am 15.9 16.8 13.0 83 1.6 CALM 0 6 0 3 1017.0 1016.8 0.0
30/12:00am 17.6 17.3 14.3 81 1.9 NNE 9 17 5 9 1017.1 1016.9 0.0
 
Date/Time
EDT
Temp
°C
App
Temp
°C
Dew
Point
Rel
Hum
%
Delta-T
°C
Wind Press
QNH
hPa
Press
MSL
hPa
Rain
since 9 am
mm
Dir
 
Spd
km/h
Gust
km/h
Spd
kts
Gust
kts
29/11:30pm 17.3 17.2 14.0 81 1.9 NNE 7 11 4 6 1017.2 1017.0 0.0
29/11:00pm 17.8 17.5 14.3 80 2.0 NNE 9 19 5 10 1017.2 1017.0 0.0
29/10:30pm 18.2 17.5 14.3 78 2.2 NNE 11 17 6 9 1017.1 1016.9 0.0
29/10:00pm 18.1 17.7 14.2 78 2.2 NNE 9 17 5 9 1017.1 1016.9 0.0
29/09:30pm 18.2 17.4 13.9 76 2.5 NE 11 17 6 9 1017.2 1017.0 0.0
29/09:00pm 18.3 17.8 13.8 75 2.6 NE 9 13 5 7 1017.2 1017.0 0.0
29/08:30pm 18.6 18.5 13.9 74 2.7 NE 7 11 4 6 1016.9 1016.7 0.0
29/08:00pm 18.9 17.3 14.0 73 2.8 ENE 15 24 8 13 1016.6 1016.4 0.0
29/07:30pm 18.9 17.2 13.7 72 3.0 ENE 15 20 8 11 1016.2 1016.0 0.0
29/07:00pm 19.4 17.4 13.8 70 3.2 E 17 22 9 12 1016.0 1015.8 0.0
29/06:30pm 19.7 17.4 14.1 70 3.2 E 19 26 10 14 1015.7 1015.5 0.0
29/06:00pm 20.0 17.1 14.1 69 3.4 E 22 33 12 18 1015.1 1014.9 0.0
29/05:30pm 20.8 18.0 14.2 66 3.8 E 22 33 12 18 1014.8 1014.6 0.0
29/05:00pm 21.1 17.9 14.3 65 4.0 E 24 32 13 17 1014.8 1014.6 0.0
29/04:30pm 21.9 18.8 14.5 63 4.4 E 24 35 13 19 1014.9 1014.7 0.0
29/04:00pm 22.3 18.8 14.4 61 4.6 E 26 35 14 19 1015.0 1014.8 0.0
29/03:30pm 22.0 18.7 13.9 60 4.7 E 24 32 13 17 1015.1 1014.9 0.0
29/03:00pm 22.3 18.9 13.6 58 5.0 E 24 41 13 22 1015.4 1015.2 0.0
29/02:30pm 22.4 19.2 11.8 51 6.0 E 20 30 11 16 1015.7 1015.5 0.0
29/02:00pm 22.9 19.5 11.3 48 6.5 E 20 30 11 16 1015.9 1015.7 0.0
29/01:30pm 23.1 19.6 10.2 44 7.1 ENE 19 28 10 15 1016.2 1016.0 0.0
29/01:00pm 23.2 19.3 9.6 42 7.4 E 20 30 11 16 1016.3 1016.1 0.0

Other Formats:

Comma delimited format used in spreadsheet applications
http://www.bom.gov.au/fwo/IDN60801/IDN60801.95761.axf

JavaScript Object Notation format (JSON) in row-major order
http://www.bom.gov.au/fwo/IDN60801/IDN60801.95761.json